sensor_id;sensor_type;location;lat;lon;timestamp;pressure;altitude;pressure_sealevel;temperature;humidity
10587;BME280;5341;47.606;7.576;2023-01-23T00:00:25;99867.13;;;3.26;65.91
10587;BME280;5341;47.606;7.576;2023-01-23T00:02:53;99854.84;;;3.24;66.09
10587;BME280;5341;47.606;7.576;2023-01-23T00:05:20;99857.50;;;3.24;66.04
10587;BME280;5341;47.606;7.576;2023-01-23T00:07:48;99853.06;;;3.25;66.10
10587;BME280;5341;47.606;7.576;2023-01-23T00:10:16;99846.91;;;3.24;65.34
10587;BME280;5341;47.606;7.576;2023-01-23T00:12:46;99846.09;;;3.24;65.69
10587;BME280;5341;47.606;7.576;2023-01-23T00:15:15;99844.28;;;3.24;65.58
10587;BME280;5341;47.606;7.576;2023-01-23T00:17:44;99839.84;;;3.25;65.92
10587;BME280;5341;47.606;7.576;2023-01-23T00:20:16;99831.06;;;3.24;65.40
10587;BME280;5341;47.606;7.576;2023-01-23T00:22:45;99825.88;;;3.23;65.52
10587;BME280;5341;47.606;7.576;2023-01-23T00:25:14;99832.97;;;3.22;65.75
10587;BME280;5341;47.606;7.576;2023-01-23T00:27:47;99825.88;;;3.23;66.16
10587;BME280;5341;47.606;7.576;2023-01-23T00:30:16;99825.03;;;3.22;65.98
10587;BME280;5341;47.606;7.576;2023-01-23T00:32:44;99830.34;;;3.22;65.67
10587;BME280;5341;47.606;7.576;2023-01-23T00:35:13;99835.63;;;3.22;65.99
10587;BME280;5341;47.606;7.576;2023-01-23T00:37:42;99832.03;;;3.23;65.56
10587;BME280;5341;47.606;7.576;2023-01-23T00:40:12;99830.22;;;3.24;65.92
10587;BME280;5341;47.606;7.576;2023-01-23T00:42:40;99837.31;;;3.23;66.03
10587;BME280;5341;47.606;7.576;2023-01-23T00:45:10;99837.31;;;3.23;65.66
10587;BME280;5341;47.606;7.576;2023-01-23T00:47:38;99835.63;;;3.22;65.65
10587;BME280;5341;47.606;7.576;2023-01-23T00:50:05;99831.91;;;3.25;66.23
10587;BME280;5341;47.606;7.576;2023-01-23T00:52:35;99825.88;;;3.23;66.03
10587;BME280;5341;47.606;7.576;2023-01-23T00:55:08;99823.25;;;3.23;65.72
10587;BME280;5341;47.606;7.576;2023-01-23T00:57:39;99828.53;;;3.23;65.50
10587;BME280;5341;47.606;7.576;2023-01-23T01:02:43;99825.88;;;3.23;65.46
10587;BME280;5341;47.606;7.576;2023-01-23T01:05:13;99832.03;;;3.23;65.47
10587;BME280;5341;47.606;7.576;2023-01-23T01:07:45;99829.38;;;3.23;65.60
10587;BME280;5341;47.606;7.576;2023-01-23T01:10:13;99830.22;;;3.24;65.59
10587;BME280;5341;47.606;7.576;2023-01-23T01:12:47;99838.16;;;3.24;66.05
10587;BME280;5341;47.606;7.576;2023-01-23T01:15:18;99847.03;;;3.23;65.89
10587;BME280;5341;47.606;7.576;2023-01-23T01:17:49;99842.59;;;3.23;65.58
10587;BME280;5341;47.606;7.576;2023-01-23T01:20:20;99837.31;;;3.23;65.70
10587;BME280;5341;47.606;7.576;2023-01-23T01:22:48;99840.78;;;3.24;65.84
10587;BME280;5341;47.606;7.576;2023-01-23T01:25:17;99852.22;;;3.24;65.64
10587;BME280;5341;47.606;7.576;2023-01-23T01:27:48;99841.75;;;3.23;66.10
10587;BME280;5341;47.606;7.576;2023-01-23T01:30:21;99845.25;;;3.23;65.85
10587;BME280;5341;47.606;7.576;2023-01-23T01:32:57;99839.84;;;3.25;65.89
10587;BME280;5341;47.606;7.576;2023-01-23T01:35:25;99842.47;;;3.25;65.69
10587;BME280;5341;47.606;7.576;2023-01-23T01:37:58;99841.63;;;3.24;65.59
10587;BME280;5341;47.606;7.576;2023-01-23T01:40:33;99841.63;;;3.24;65.50
10587;BME280;5341;47.606;7.576;2023-01-23T01:43:17;99845.13;;;3.25;65.63
10587;BME280;5341;47.606;7.576;2023-01-23T01:46:12;99847.78;;;3.25;65.78
10587;BME280;5341;47.606;7.576;2023-01-23T01:48:49;99848.72;;;3.24;65.44
10587;BME280;5341;47.606;7.576;2023-01-23T01:53:46;99850.53;;;3.23;65.41
10587;BME280;5341;47.606;7.576;2023-01-23T01:56:17;99852.22;;;3.24;65.87
10587;BME280;5341;47.606;7.576;2023-01-23T01:58:48;99850.53;;;3.23;66.03
10587;BME280;5341;47.606;7.576;2023-01-23T02:01:20;99854.13;;;3.22;66.06
10587;BME280;5341;47.606;7.576;2023-01-23T02:03:49;99848.72;;;3.24;65.36
10587;BME280;5341;47.606;7.576;2023-01-23T02:06:21;99853.16;;;3.23;65.41
10587;BME280;5341;47.606;7.576;2023-01-23T02:08:53;99849.69;;;3.23;65.47
10587;BME280;5341;47.606;7.576;2023-01-23T02:11:26;99850.63;;;3.22;65.34
10587;BME280;5341;47.606;7.576;2023-01-23T02:13:54;99852.31;;;3.23;66.05
10587;BME280;5341;47.606;7.576;2023-01-23T02:16:26;99854.97;;;3.23;65.99
10587;BME280;5341;47.606;7.576;2023-01-23T02:18:58;99854.97;;;3.23;65.48
10587;BME280;5341;47.606;7.576;2023-01-23T02:21:27;99857.59;;;3.23;65.92
10587;BME280;5341;47.606;7.576;2023-01-23T02:24:11;99856.78;;;3.22;65.98
10587;BME280;5341;47.606;7.576;2023-01-23T02:26:44;99853.16;;;3.23;65.87
10587;BME280;5341;47.606;7.576;2023-01-23T02:29:14;99854.97;;;3.23;65.66
10587;BME280;5341;47.606;7.576;2023-01-23T02:31:49;99852.31;;;3.23;65.50
10587;BME280;5341;47.606;7.576;2023-01-23T02:34:20;99841.75;;;3.23;65.41
10587;BME280;5341;47.606;7.576;2023-01-23T02:36:53;99851.47;;;3.22;65.91
10587;BME280;5341;47.606;7.576;2023-01-23T02:39:22;99851.38;;;3.24;65.66
10587;BME280;5341;47.606;7.576;2023-01-23T02:41:55;99836.47;;;3.23;65.44
10587;BME280;5341;47.606;7.576;2023-01-23T02:44:40;99842.59;;;3.23;65.47
10587;BME280;5341;47.606;7.576;2023-01-23T02:47:09;99835.63;;;3.22;65.69
10587;BME280;5341;47.606;7.576;2023-01-23T02:49:43;99834.78;;;3.22;65.83
10587;BME280;5341;47.606;7.576;2023-01-23T02:52:20;99832.13;;;3.22;65.50
10587;BME280;5341;47.606;7.576;2023-01-23T02:54:51;99835.63;;;3.22;65.96
10587;BME280;5341;47.606;7.576;2023-01-23T02:57:23;99828.53;;;3.23;66.16
10587;BME280;5341;47.606;7.576;2023-01-23T02:59:52;99824.22;;;3.22;66.08
10587;BME280;5341;47.606;7.576;2023-01-23T03:02:41;99822.41;;;3.22;65.98
10587;BME280;5341;47.606;7.576;2023-01-23T03:05:15;99817.13;;;3.22;66.03
10587;BME280;5341;47.606;7.576;2023-01-23T03:07:43;99812.69;;;3.23;65.77
10587;BME280;5341;47.606;7.576;2023-01-23T03:10:13;99818.91;;;3.22;65.87
10587;BME280;5341;47.606;7.576;2023-01-23T03:12:46;99819.75;;;3.22;66.12
10587;BME280;5341;47.606;7.576;2023-01-23T03:15:16;99813.63;;;3.22;65.96
10587;BME280;5341;47.606;7.576;2023-01-23T03:17:46;99817.22;;;3.21;65.96
10587;BME280;5341;47.606;7.576;2023-01-23T03:20:16;99826.00;;;3.21;66.30
10587;BME280;5341;47.606;7.576;2023-01-23T03:22:46;99815.31;;;3.23;66.00
10587;BME280;5341;47.606;7.576;2023-01-23T03:25:16;99817.13;;;3.22;65.72
10587;BME280;5341;47.606;7.576;2023-01-23T03:27:45;99825.88;;;3.23;66.31
10587;BME280;5341;47.606;7.576;2023-01-23T03:30:14;99822.41;;;3.22;65.69
10587;BME280;5341;47.606;7.576;2023-01-23T03:32:43;99832.97;;;3.22;65.56
10587;BME280;5341;47.606;7.576;2023-01-23T03:35:14;99826.84;;;3.22;66.02
10587;BME280;5341;47.606;7.576;2023-01-23T03:37:44;99831.28;;;3.21;65.58
10587;BME280;5341;47.606;7.576;2023-01-23T03:40:16;99835.63;;;3.22;65.43
10587;BME280;5341;47.606;7.576;2023-01-23T03:43:04;99826.00;;;3.21;66.05
10587;BME280;5341;47.606;7.576;2023-01-23T03:45:34;99825.03;;;3.22;66.00
10587;BME280;5341;47.606;7.576;2023-01-23T03:48:03;99833.81;;;3.23;66.00
10587;BME280;5341;47.606;7.576;2023-01-23T03:50:31;99823.25;;;3.23;65.68
10587;BME280;5341;47.606;7.576;2023-01-23T03:52:59;99835.50;;;3.24;65.76
10587;BME280;5341;47.606;7.576;2023-01-23T03:55:27;99829.38;;;3.23;65.43
10587;BME280;5341;47.606;7.576;2023-01-23T03:57:54;99837.31;;;3.23;65.43
10587;BME280;5341;47.606;7.576;2023-01-23T04:00:31;99838.25;;;3.22;65.61
10587;BME280;5341;47.606;7.576;2023-01-23T04:03:03;99846.19;;;3.22;65.89
10587;BME280;5341;47.606;7.576;2023-01-23T04:05:31;99844.41;;;3.23;65.56
10587;BME280;5341;47.606;7.576;2023-01-23T04:08:00;99840.91;;;3.22;65.57
10587;BME280;5341;47.606;7.576;2023-01-23T04:10:28;99845.34;;;3.22;65.52
10587;BME280;5341;47.606;7.576;2023-01-23T04:13:02;99846.19;;;3.22;66.09
10587;BME280;5341;47.606;7.576;2023-01-23T04:15:32;99847.03;;;3.23;65.86
10587;BME280;5341;47.606;7.576;2023-01-23T04:18:08;99846.09;;;3.24;66.15
10587;BME280;5341;47.606;7.576;2023-01-23T04:20:35;99847.03;;;3.23;66.20
10587;BME280;5341;47.606;7.576;2023-01-23T04:23:04;99846.91;;;3.24;65.85
10587;BME280;5341;47.606;7.576;2023-01-23T04:25:32;99851.38;;;3.24;65.98
10587;BME280;5341;47.606;7.576;2023-01-23T04:28:02;99848.72;;;3.24;65.74
10587;BME280;5341;47.606;7.576;2023-01-23T04:30:31;99853.06;;;3.25;65.47
10587;BME280;5341;47.606;7.576;2023-01-23T04:33:07;99849.56;;;3.24;66.05
10587;BME280;5341;47.606;7.576;2023-01-23T04:35:35;99853.06;;;3.25;65.87
10587;BME280;5341;47.606;7.576;2023-01-23T04:38:05;99850.41;;;3.25;65.43
10587;BME280;5341;47.606;7.576;2023-01-23T04:40:35;99852.22;;;3.24;65.92
10587;BME280;5341;47.606;7.576;2023-01-23T04:43:03;99845.13;;;3.25;65.47
10587;BME280;5341;47.606;7.576;2023-01-23T04:45:41;99848.63;;;3.26;65.69
10587;BME280;5341;47.606;7.576;2023-01-23T04:48:34;99844.28;;;3.24;65.56
10587;BME280;5341;47.606;7.576;2023-01-23T04:51:03;99853.06;;;3.25;65.87
10587;BME280;5341;47.606;7.576;2023-01-23T04:53:30;99847.78;;;3.25;65.46
10587;BME280;5341;47.606;7.576;2023-01-23T04:56:01;99838.16;;;3.24;65.74
10587;BME280;5341;47.606;7.576;2023-01-23T04:58:29;99847.78;;;3.25;65.87
10587;BME280;5341;47.606;7.576;2023-01-23T05:01:06;99846.81;;;3.26;65.82
10587;BME280;5341;47.606;7.576;2023-01-23T05:03:35;99843.44;;;3.24;66.03
10587;BME280;5341;47.606;7.576;2023-01-23T05:06:03;99839.84;;;3.25;65.76
10587;BME280;5341;47.606;7.576;2023-01-23T05:08:30;99843.31;;;3.26;66.15
10587;BME280;5341;47.606;7.576;2023-01-23T05:11:18;99841.63;;;3.24;65.76
10587;BME280;5341;47.606;7.576;2023-01-23T05:13:46;99835.50;;;3.24;65.48
10587;BME280;5341;47.606;7.576;2023-01-23T05:16:15;99831.06;;;3.24;65.35
10587;BME280;5341;47.606;7.576;2023-01-23T05:19:02;99833.81;;;3.23;65.70
10587;BME280;5341;47.606;7.576;2023-01-23T05:21:31;99832.88;;;3.24;65.48
10587;BME280;5341;47.606;7.576;2023-01-23T05:23:59;99835.50;;;3.24;65.35
10587;BME280;5341;47.606;7.576;2023-01-23T05:26:26;99830.22;;;3.24;66.04
10587;BME280;5341;47.606;7.576;2023-01-23T05:28:55;99830.22;;;3.24;65.74
10587;BME280;5341;47.606;7.576;2023-01-23T05:31:27;99829.25;;;3.25;65.87
10587;BME280;5341;47.606;7.576;2023-01-23T05:34:20;99824.94;;;3.24;66.12
10587;BME280;5341;47.606;7.576;2023-01-23T05:36:48;99831.91;;;3.25;65.98
10587;BME280;5341;47.606;7.576;2023-01-23T05:39:16;99827.56;;;3.24;66.03
10587;BME280;5341;47.606;7.576;2023-01-23T05:41:44;99840.69;;;3.26;66.09
10587;BME280;5341;47.606;7.576;2023-01-23T05:44:28;99842.59;;;3.23;65.86
10587;BME280;5341;47.606;7.576;2023-01-23T05:47:08;99843.44;;;3.24;65.80
10587;BME280;5341;47.606;7.576;2023-01-23T05:49:35;99844.28;;;3.24;65.79
10587;BME280;5341;47.606;7.576;2023-01-23T05:52:03;99849.56;;;3.24;65.97
10587;BME280;5341;47.606;7.576;2023-01-23T05:54:34;99850.41;;;3.25;65.73
10587;BME280;5341;47.606;7.576;2023-01-23T05:57:05;99843.44;;;3.24;66.28
10587;BME280;5341;47.606;7.576;2023-01-23T05:59:53;99855.81;;;3.23;66.14
10587;BME280;5341;47.606;7.576;2023-01-23T06:02:41;99857.50;;;3.24;65.81
10587;BME280;5341;47.606;7.576;2023-01-23T06:05:48;99854.13;;;3.22;66.20
10587;BME280;5341;47.606;7.576;2023-01-23T06:08:18;99857.59;;;3.23;66.38
10587;BME280;5341;47.606;7.576;2023-01-23T06:10:46;99863.75;;;3.23;65.98
10587;BME280;5341;47.606;7.576;2023-01-23T06:13:16;99863.75;;;3.23;66.25
10587;BME280;5341;47.606;7.576;2023-01-23T06:15:47;99871.66;;;3.23;65.91
10587;BME280;5341;47.606;7.576;2023-01-23T06:18:18;99861.22;;;3.22;66.03
10587;BME280;5341;47.606;7.576;2023-01-23T06:20:46;99865.53;;;3.23;65.96
10587;BME280;5341;47.606;7.576;2023-01-23T06:23:14;99867.34;;;3.22;65.97
10587;BME280;5341;47.606;7.576;2023-01-23T06:25:43;99871.78;;;3.22;65.97
10587;BME280;5341;47.606;7.576;2023-01-23T06:28:11;99880.56;;;3.22;66.33
10587;BME280;5341;47.606;7.576;2023-01-23T06:30:39;99886.56;;;3.24;66.24
10587;BME280;5341;47.606;7.576;2023-01-23T06:36:11;99871.56;;;3.25;65.84
10587;BME280;5341;47.606;7.576;2023-01-23T06:38:39;99880.44;;;3.24;65.77
10587;BME280;5341;47.606;7.576;2023-01-23T06:41:10;99882.97;;;3.26;66.11
10587;BME280;5341;47.606;7.576;2023-01-23T06:43:40;99891.88;;;3.24;65.86
10587;BME280;5341;47.606;7.576;2023-01-23T06:46:14;99895.34;;;3.25;66.29
10587;BME280;5341;47.606;7.576;2023-01-23T06:48:42;99897.16;;;3.24;66.20
10587;BME280;5341;47.606;7.576;2023-01-23T06:51:12;99891.88;;;3.24;65.55
10587;BME280;5341;47.606;7.576;2023-01-23T06:53:42;99894.50;;;3.24;66.18
10587;BME280;5341;47.606;7.576;2023-01-23T06:56:11;99890.06;;;3.25;66.02
10587;BME280;5341;47.606;7.576;2023-01-23T06:58:42;99898.00;;;3.25;66.19
10587;BME280;5341;47.606;7.576;2023-01-23T07:01:17;99892.69;;;3.25;66.19
10587;BME280;5341;47.606;7.576;2023-01-23T07:04:04;99901.59;;;3.24;65.97
10587;BME280;5341;47.606;7.576;2023-01-23T07:06:33;99902.44;;;3.24;66.25
10587;BME280;5341;47.606;7.576;2023-01-23T07:09:02;99904.22;;;3.24;65.57
10587;BME280;5341;47.606;7.576;2023-01-23T07:11:30;99908.69;;;3.23;65.59
10587;BME280;5341;47.606;7.576;2023-01-23T07:13:57;99913.13;;;3.23;65.59
10587;BME280;5341;47.606;7.576;2023-01-23T07:16:26;99913.97;;;3.23;65.81
10587;BME280;5341;47.606;7.576;2023-01-23T07:18:56;99916.59;;;3.23;65.51
10587;BME280;5341;47.606;7.576;2023-01-23T07:21:25;99919.25;;;3.23;66.03
10587;BME280;5341;47.606;7.576;2023-01-23T07:23:54;99922.75;;;3.24;65.78
10587;BME280;5341;47.606;7.576;2023-01-23T07:26:25;99915.75;;;3.23;65.48
10587;BME280;5341;47.606;7.576;2023-01-23T07:28:53;99916.59;;;3.23;65.78
10587;BME280;5341;47.606;7.576;2023-01-23T07:31:21;99911.31;;;3.23;66.05
10587;BME280;5341;47.606;7.576;2023-01-23T07:33:49;99920.09;;;3.24;65.62
10587;BME280;5341;47.606;7.576;2023-01-23T07:36:20;99927.19;;;3.23;65.89
10587;BME280;5341;47.606;7.576;2023-01-23T07:38:48;99927.19;;;3.23;66.10
10587;BME280;5341;47.606;7.576;2023-01-23T07:41:18;99921.91;;;3.23;65.87
10587;BME280;5341;47.606;7.576;2023-01-23T07:43:47;99914.06;;;3.22;65.37
10587;BME280;5341;47.606;7.576;2023-01-23T07:46:16;99926.44;;;3.21;65.78
10587;BME280;5341;47.606;7.576;2023-01-23T07:48:47;99916.72;;;3.22;65.71
10587;BME280;5341;47.606;7.576;2023-01-23T07:51:17;99914.06;;;3.22;66.14
10587;BME280;5341;47.606;7.576;2023-01-23T07:53:45;99914.06;;;3.22;65.97
10587;BME280;5341;47.606;7.576;2023-01-23T07:56:13;99921.16;;;3.21;65.91
10587;BME280;5341;47.606;7.576;2023-01-23T07:58:43;99914.06;;;3.22;65.79
10587;BME280;5341;47.606;7.576;2023-01-23T08:01:14;99932.56;;;3.22;66.25
10587;BME280;5341;47.606;7.576;2023-01-23T08:03:46;99926.34;;;3.23;65.99
10587;BME280;5341;47.606;7.576;2023-01-23T08:06:13;99931.63;;;3.23;65.53
10587;BME280;5341;47.606;7.576;2023-01-23T08:08:43;99930.66;;;3.24;65.50
10587;BME280;5341;47.606;7.576;2023-01-23T08:11:11;99929.72;;;3.25;65.52
10587;BME280;5341;47.606;7.576;2023-01-23T08:13:42;99932.34;;;3.25;65.39
10587;BME280;5341;47.606;7.576;2023-01-23T08:16:10;99933.13;;;3.27;65.63
10587;BME280;5341;47.606;7.576;2023-01-23T08:18:38;99937.44;;;3.28;65.80
10587;BME280;5341;47.606;7.576;2023-01-23T08:21:08;99932.16;;;3.28;66.14
10587;BME280;5341;47.606;7.576;2023-01-23T08:23:38;99935.66;;;3.29;65.86
10587;BME280;5341;47.606;7.576;2023-01-23T08:26:10;99936.50;;;3.29;65.56
10587;BME280;5341;47.606;7.576;2023-01-23T08:28:50;99933.84;;;3.29;66.12
10587;BME280;5341;47.606;7.576;2023-01-23T08:31:49;99925.91;;;3.29;65.83
10587;BME280;5341;47.606;7.576;2023-01-23T08:34:40;99918.94;;;3.28;66.49
10587;BME280;5341;47.606;7.576;2023-01-23T08:37:25;99921.59;;;3.28;66.42
10587;BME280;5341;47.606;7.576;2023-01-23T08:40:00;99912.72;;;3.29;66.62
10587;BME280;5341;47.606;7.576;2023-01-23T08:42:28;99914.41;;;3.30;66.06
10587;BME280;5341;47.606;7.576;2023-01-23T08:44:58;99922.22;;;3.32;66.06
10587;BME280;5341;47.606;7.576;2023-01-23T08:47:26;99912.38;;;3.34;66.08
10587;BME280;5341;47.606;7.576;2023-01-23T08:49:56;99910.56;;;3.34;66.53
10587;BME280;5341;47.606;7.576;2023-01-23T08:52:24;99914.06;;;3.35;66.00
10587;BME280;5341;47.606;7.576;2023-01-23T08:55:15;99909.63;;;3.35;66.20
10587;BME280;5341;47.606;7.576;2023-01-23T08:57:42;99901.69;;;3.35;66.41
10587;BME280;5341;47.606;7.576;2023-01-23T09:00:15;99906.84;;;3.37;65.92
10587;BME280;5341;47.606;7.576;2023-01-23T09:02:43;99905.91;;;3.38;65.74
10587;BME280;5341;47.606;7.576;2023-01-23T09:05:10;99901.47;;;3.38;66.47
10587;BME280;5341;47.606;7.576;2023-01-23T09:07:38;99905.81;;;3.39;65.96
10587;BME280;5341;47.606;7.576;2023-01-23T09:10:09;99900.53;;;3.39;65.79
10587;BME280;5341;47.606;7.576;2023-01-23T09:12:37;99902.22;;;3.40;66.21
10587;BME280;5341;47.606;7.576;2023-01-23T09:15:07;99910.16;;;3.40;65.85
10587;BME280;5341;47.606;7.576;2023-01-23T09:17:37;99907.41;;;3.42;66.04
10587;BME280;5341;47.606;7.576;2023-01-23T09:20:06;99906.44;;;3.43;65.83
10587;BME280;5341;47.606;7.576;2023-01-23T09:22:34;99908.13;;;3.44;65.96
10587;BME280;5341;47.606;7.576;2023-01-23T09:25:01;99908.13;;;3.44;66.01
10587;BME280;5341;47.606;7.576;2023-01-23T09:27:30;99908.00;;;3.45;66.05
10587;BME280;5341;47.606;7.576;2023-01-23T09:29:58;99909.72;;;3.46;65.84
10587;BME280;5341;47.606;7.576;2023-01-23T09:32:26;99899.13;;;3.46;65.65
10587;BME280;5341;47.606;7.576;2023-01-23T09:34:56;99893.63;;;3.49;66.02
10587;BME280;5341;47.606;7.576;2023-01-23T09:37:24;99900.59;;;3.50;65.71
10587;BME280;5341;47.606;7.576;2023-01-23T09:39:52;99901.34;;;3.52;65.52
10587;BME280;5341;47.606;7.576;2023-01-23T09:42:21;99908.22;;;3.55;65.24
10587;BME280;5341;47.606;7.576;2023-01-23T09:44:52;99909.91;;;3.56;65.55
10587;BME280;5341;47.606;7.576;2023-01-23T09:47:26;99915.06;;;3.58;65.73
10587;BME280;5341;47.606;7.576;2023-01-23T09:50:01;99918.56;;;3.58;65.40
10587;BME280;5341;47.606;7.576;2023-01-23T09:52:33;99907.03;;;3.59;65.76
10587;BME280;5341;47.606;7.576;2023-01-23T09:55:10;99915.91;;;3.58;65.18
10587;BME280;5341;47.606;7.576;2023-01-23T09:57:42;99908.00;;;3.58;65.42
10587;BME280;5341;47.606;7.576;2023-01-23T10:00:18;99913.28;;;3.58;64.99
10587;BME280;5341;47.606;7.576;2023-01-23T10:02:47;99917.72;;;3.58;64.71
10587;BME280;5341;47.606;7.576;2023-01-23T10:05:18;99914.13;;;3.59;64.86
10587;BME280;5341;47.606;7.576;2023-01-23T10:08:06;99905.34;;;3.58;64.52
10587;BME280;5341;47.606;7.576;2023-01-23T10:10:57;99909.66;;;3.59;65.05
10587;BME280;5341;47.606;7.576;2023-01-23T10:13:58;99900.06;;;3.58;64.64
10587;BME280;5341;47.606;7.576;2023-01-23T10:17:01;99884.06;;;3.60;65.18
10587;BME280;5341;47.606;7.576;2023-01-23T10:19:55;99884.91;;;3.60;65.03
10587;BME280;5341;47.606;7.576;2023-01-23T10:22:45;99875.28;;;3.59;65.20
10587;BME280;5341;47.606;7.576;2023-01-23T10:25:19;99870.84;;;3.60;64.55
10587;BME280;5341;47.606;7.576;2023-01-23T10:27:50;99873.50;;;3.60;64.51
10587;BME280;5341;47.606;7.576;2023-01-23T10:30:21;99869.03;;;3.60;64.72
10587;BME280;5341;47.606;7.576;2023-01-23T10:32:57;99868.09;;;3.61;64.70
10587;BME280;5341;47.606;7.576;2023-01-23T10:38:22;99861.75;;;3.64;65.02
10587;BME280;5341;47.606;7.576;2023-01-23T10:40:52;99867.88;;;3.64;64.63
10587;BME280;5341;47.606;7.576;2023-01-23T10:43:38;99867.13;;;3.62;64.66
10587;BME280;5341;47.606;7.576;2023-01-23T10:46:11;99860.88;;;3.63;65.00
10587;BME280;5341;47.606;7.576;2023-01-23T10:48:42;99863.44;;;3.65;64.37
10587;BME280;5341;47.606;7.576;2023-01-23T10:51:31;99858.88;;;3.67;64.88
10587;BME280;5341;47.606;7.576;2023-01-23T10:54:17;99860.69;;;3.66;64.71
10587;BME280;5341;47.606;7.576;2023-01-23T10:56:50;99864.91;;;3.69;64.45
10587;BME280;5341;47.606;7.576;2023-01-23T10:59:26;99868.38;;;3.69;65.05
10587;BME280;5341;47.606;7.576;2023-01-23T11:04:44;99863.81;;;3.71;65.03
10587;BME280;5341;47.606;7.576;2023-01-23T11:07:13;99868.28;;;3.71;65.06
10587;BME280;5341;47.606;7.576;2023-01-23T11:09:54;99867.44;;;3.70;64.78
10587;BME280;5341;47.606;7.576;2023-01-23T11:12:24;99865.63;;;3.71;64.66
10587;BME280;5341;47.606;7.576;2023-01-23T11:15:11;99868.28;;;3.71;64.85
10587;BME280;5341;47.606;7.576;2023-01-23T11:17:41;99862.13;;;3.70;65.08
10587;BME280;5341;47.606;7.576;2023-01-23T11:20:19;99856.00;;;3.70;64.41
10587;BME280;5341;47.606;7.576;2023-01-23T11:23:03;99859.38;;;3.72;65.22
10587;BME280;5341;47.606;7.576;2023-01-23T11:25:36;99849.63;;;3.72;64.53
10587;BME280;5341;47.606;7.576;2023-01-23T11:28:19;99846.03;;;3.73;64.92
10587;BME280;5341;47.606;7.576;2023-01-23T11:30:53;99846.03;;;3.73;65.33
10587;BME280;5341;47.606;7.576;2023-01-23T11:33:35;99843.38;;;3.73;64.38
10587;BME280;5341;47.606;7.576;2023-01-23T11:38:59;99832.81;;;3.73;64.87
10587;BME280;5341;47.606;7.576;2023-01-23T11:41:33;99826.56;;;3.74;64.86
10587;BME280;5341;47.606;7.576;2023-01-23T11:44:06;99828.25;;;3.75;64.62
10587;BME280;5341;47.606;7.576;2023-01-23T11:46:44;99829.97;;;3.76;64.78
10587;BME280;5341;47.606;7.576;2023-01-23T11:49:26;99822.88;;;3.77;64.99
10587;BME280;5341;47.606;7.576;2023-01-23T11:52:15;99813.84;;;3.79;64.98
10587;BME280;5341;47.606;7.576;2023-01-23T11:54:58;99812.16;;;3.78;64.83
10587;BME280;5341;47.606;7.576;2023-01-23T11:57:37;99813.84;;;3.79;64.95
10587;BME280;5341;47.606;7.576;2023-01-23T12:00:21;99807.59;;;3.80;65.14
10587;BME280;5341;47.606;7.576;2023-01-23T12:03:01;99804.94;;;3.80;64.31
10587;BME280;5341;47.606;7.576;2023-01-23T12:05:51;99804.84;;;3.82;64.85
10587;BME280;5341;47.606;7.576;2023-01-23T12:08:29;99808.31;;;3.82;64.39
10587;BME280;5341;47.606;7.576;2023-01-23T12:11:09;99805.56;;;3.84;64.63
10587;BME280;5341;47.606;7.576;2023-01-23T12:13:55;99803.63;;;3.86;64.43
10587;BME280;5341;47.606;7.576;2023-01-23T12:16:32;99807.13;;;3.87;64.04
10587;BME280;5341;47.606;7.576;2023-01-23T12:19:14;99796.47;;;3.88;64.24
10587;BME280;5341;47.606;7.576;2023-01-23T12:21:51;99799.94;;;3.89;64.60
10587;BME280;5341;47.606;7.576;2023-01-23T12:24:39;99797.19;;;3.90;64.30
10587;BME280;5341;47.606;7.576;2023-01-23T12:27:17;99784.78;;;3.91;64.64
10587;BME280;5341;47.606;7.576;2023-01-23T12:30:03;99785.63;;;3.91;64.49
10587;BME280;5341;47.606;7.576;2023-01-23T12:32:44;99776.84;;;3.91;65.33
10587;BME280;5341;47.606;7.576;2023-01-23T12:35:28;99768.78;;;3.92;64.51
10587;BME280;5341;47.606;7.576;2023-01-23T12:38:23;99762.78;;;3.90;64.51
10587;BME280;5341;47.606;7.576;2023-01-23T12:40:58;99757.59;;;3.89;64.75
10587;BME280;5341;47.606;7.576;2023-01-23T12:43:36;99750.50;;;3.89;64.84
10587;BME280;5341;47.606;7.576;2023-01-23T12:46:12;99751.47;;;3.88;64.93
10587;BME280;5341;47.606;7.576;2023-01-23T12:48:43;99741.94;;;3.86;64.91
10587;BME280;5341;47.606;7.576;2023-01-23T12:51:21;99741.81;;;3.87;65.58
10587;BME280;5341;47.606;7.576;2023-01-23T12:53:55;99743.63;;;3.87;65.03
10587;BME280;5341;47.606;7.576;2023-01-23T12:56:31;99726.06;;;3.86;64.83
10587;BME280;5341;47.606;7.576;2023-01-23T12:59:04;99734.97;;;3.85;64.99
10587;BME280;5341;47.606;7.576;2023-01-23T13:01:53;99727.16;;;3.83;65.33
10587;BME280;5341;47.606;7.576;2023-01-23T13:04:31;99732.31;;;3.85;65.47
10587;BME280;5341;47.606;7.576;2023-01-23T13:07:12;99729.91;;;3.81;64.98
10587;BME280;5341;47.606;7.576;2023-01-23T13:10:03;99729.91;;;3.81;65.49
10587;BME280;5341;47.606;7.576;2023-01-23T13:12:42;99723.78;;;3.81;65.15
10587;BME280;5341;47.606;7.576;2023-01-23T13:15:32;99725.34;;;3.83;65.46
10587;BME280;5341;47.606;7.576;2023-01-23T13:18:30;99712.84;;;3.86;65.90
10587;BME280;5341;47.606;7.576;2023-01-23T13:21:19;99712.22;;;3.82;65.52
10587;BME280;5341;47.606;7.576;2023-01-23T13:24:28;99705.84;;;3.85;65.47
10587;BME280;5341;47.606;7.576;2023-01-23T13:27:51;99712.22;;;3.82;65.63
10587;BME280;5341;47.606;7.576;2023-01-23T13:30:41;99712.34;;;3.80;65.64
10587;BME280;5341;47.606;7.576;2023-01-23T13:36:28;99716.81;;;3.80;66.04
10587;BME280;5341;47.606;7.576;2023-01-23T13:45:25;99709.22;;;3.87;65.70
10587;BME280;5341;47.606;7.576;2023-01-23T13:48:15;99715.34;;;3.87;66.10
10587;BME280;5341;47.606;7.576;2023-01-23T13:51:08;99713.56;;;3.88;65.94
10587;BME280;5341;47.606;7.576;2023-01-23T13:53:45;99720.31;;;3.92;66.03
10587;BME280;5341;47.606;7.576;2023-01-23T13:56:31;99725.63;;;3.92;65.32
10587;BME280;5341;47.606;7.576;2023-01-23T13:59:19;99717.44;;;3.95;65.34
10587;BME280;5341;47.606;7.576;2023-01-23T14:01:55;99714.66;;;3.96;65.56
10587;BME280;5341;47.606;7.576;2023-01-23T14:04:57;99710.94;;;3.99;66.10
10587;BME280;5341;47.606;7.576;2023-01-23T14:07:42;99707.44;;;3.98;65.09
10587;BME280;5341;47.606;7.576;2023-01-23T14:10:24;99712.66;;;4.00;65.52
10587;BME280;5341;47.606;7.576;2023-01-23T14:13:02;99722.28;;;4.01;65.39
10587;BME280;5341;47.606;7.576;2023-01-23T14:15:31;99708.09;;;4.02;65.57
10587;BME280;5341;47.606;7.576;2023-01-23T14:18:18;99711.44;;;4.04;65.47
10587;BME280;5341;47.606;7.576;2023-01-23T14:20:52;99710.50;;;4.05;64.97
10587;BME280;5341;47.606;7.576;2023-01-23T14:23:27;99715.66;;;4.06;65.37
10587;BME280;5341;47.606;7.576;2023-01-23T14:25:57;99712.06;;;4.07;65.41